sensor_id;sensor_type;location;lat;lon;timestamp;P1;durP1;ratioP1;P2;durP2;ratioP2
16029;SDS011;34770;49.272;11.070;2024-01-10T00:00:08;16.43;;;10.23;;
16029;SDS011;34770;49.272;11.070;2024-01-10T00:02:34;15.33;;;11.90;;
16029;SDS011;34770;49.272;11.070;2024-01-10T00:04:59;16.23;;;10.17;;
16029;SDS011;34770;49.272;11.070;2024-01-10T00:07:24;21.37;;;12.53;;
16029;SDS011;34770;49.272;11.070;2024-01-10T00:09:50;15.77;;;11.13;;
16029;SDS011;34770;49.272;11.070;2024-01-10T00:12:15;19.67;;;12.70;;
16029;SDS011;34770;49.272;11.070;2024-01-10T00:14:41;14.47;;;10.30;;
16029;SDS011;34770;49.272;11.070;2024-01-10T00:17:06;17.47;;;10.50;;
16029;SDS011;34770;49.272;11.070;2024-01-10T00:19:32;17.10;;;11.60;;
16029;SDS011;34770;49.272;11.070;2024-01-10T00:21:57;19.20;;;11.57;;
16029;SDS011;34770;49.272;11.070;2024-01-10T00:24:23;21.90;;;12.23;;
16029;SDS011;34770;49.272;11.070;2024-01-10T00:26:48;19.80;;;11.63;;
16029;SDS011;34770;49.272;11.070;2024-01-10T00:29:14;18.37;;;11.07;;
16029;SDS011;34770;49.272;11.070;2024-01-10T00:31:39;19.93;;;10.67;;
16029;SDS011;34770;49.272;11.070;2024-01-10T00:34:05;20.07;;;12.43;;
16029;SDS011;34770;49.272;11.070;2024-01-10T00:36:30;21.10;;;12.90;;
16029;SDS011;34770;49.272;11.070;2024-01-10T00:38:55;18.93;;;11.03;;
16029;SDS011;34770;49.272;11.070;2024-01-10T00:41:21;21.97;;;12.57;;
16029;SDS011;34770;49.272;11.070;2024-01-10T00:43:46;20.37;;;12.47;;
16029;SDS011;34770;49.272;11.070;2024-01-10T00:46:11;17.33;;;12.17;;
16029;SDS011;34770;49.272;11.070;2024-01-10T00:48:37;17.20;;;10.97;;
16029;SDS011;34770;49.272;11.070;2024-01-10T00:51:02;23.23;;;12.37;;
16029;SDS011;34770;49.272;11.070;2024-01-10T00:53:33;21.23;;;13.13;;
16029;SDS011;34770;49.272;11.070;2024-01-10T00:55:59;21.50;;;11.90;;
16029;SDS011;34770;49.272;11.070;2024-01-10T00:58:24;23.60;;;12.73;;
16029;SDS011;34770;49.272;11.070;2024-01-10T01:00:49;17.40;;;11.47;;
16029;SDS011;34770;49.272;11.070;2024-01-10T01:03:15;19.90;;;12.80;;
16029;SDS011;34770;49.272;11.070;2024-01-10T01:05:40;21.10;;;12.90;;
16029;SDS011;34770;49.272;11.070;2024-01-10T01:08:06;23.93;;;12.57;;
16029;SDS011;34770;49.272;11.070;2024-01-10T01:10:31;21.13;;;11.20;;
16029;SDS011;34770;49.272;11.070;2024-01-10T01:12:57;22.13;;;12.10;;
16029;SDS011;34770;49.272;11.070;2024-01-10T01:15:22;21.17;;;13.20;;
16029;SDS011;34770;49.272;11.070;2024-01-10T01:17:48;24.03;;;14.03;;
16029;SDS011;34770;49.272;11.070;2024-01-10T01:20:13;18.93;;;13.27;;
16029;SDS011;34770;49.272;11.070;2024-01-10T01:22:39;26.10;;;13.80;;
16029;SDS011;34770;49.272;11.070;2024-01-10T01:25:04;19.87;;;12.53;;
16029;SDS011;34770;49.272;11.070;2024-01-10T01:27:30;19.60;;;12.07;;
16029;SDS011;34770;49.272;11.070;2024-01-10T01:29:55;19.43;;;12.20;;
16029;SDS011;34770;49.272;11.070;2024-01-10T01:32:21;18.73;;;12.30;;
16029;SDS011;34770;49.272;11.070;2024-01-10T01:34:46;16.53;;;10.97;;
16029;SDS011;34770;49.272;11.070;2024-01-10T01:37:11;17.63;;;12.27;;
16029;SDS011;34770;49.272;11.070;2024-01-10T01:39:37;18.63;;;11.97;;
16029;SDS011;34770;49.272;11.070;2024-01-10T01:42:02;17.47;;;11.23;;
16029;SDS011;34770;49.272;11.070;2024-01-10T01:44:28;15.53;;;11.30;;
16029;SDS011;34770;49.272;11.070;2024-01-10T01:46:54;18.43;;;12.00;;
16029;SDS011;34770;49.272;11.070;2024-01-10T01:49:20;16.23;;;10.77;;
16029;SDS011;34770;49.272;11.070;2024-01-10T01:51:45;21.33;;;12.53;;
16029;SDS011;34770;49.272;11.070;2024-01-10T01:54:11;18.50;;;12.40;;
16029;SDS011;34770;49.272;11.070;2024-01-10T01:56:37;21.03;;;13.23;;
16029;SDS011;34770;49.272;11.070;2024-01-10T01:59:04;20.47;;;12.00;;
16029;SDS011;34770;49.272;11.070;2024-01-10T02:01:29;20.93;;;12.10;;
16029;SDS011;34770;49.272;11.070;2024-01-10T02:03:55;18.30;;;11.73;;
16029;SDS011;34770;49.272;11.070;2024-01-10T02:06:21;20.10;;;12.63;;
16029;SDS011;34770;49.272;11.070;2024-01-10T02:08:47;23.10;;;12.77;;
16029;SDS011;34770;49.272;11.070;2024-01-10T02:11:12;17.93;;;11.83;;
16029;SDS011;34770;49.272;11.070;2024-01-10T02:13:38;18.17;;;12.13;;
16029;SDS011;34770;49.272;11.070;2024-01-10T02:16:03;17.00;;;12.17;;
16029;SDS011;34770;49.272;11.070;2024-01-10T02:18:30;19.23;;;11.10;;
16029;SDS011;34770;49.272;11.070;2024-01-10T02:20:56;20.97;;;11.27;;
16029;SDS011;34770;49.272;11.070;2024-01-10T02:23:21;17.57;;;12.30;;
16029;SDS011;34770;49.272;11.070;2024-01-10T02:25:46;18.47;;;12.40;;
16029;SDS011;34770;49.272;11.070;2024-01-10T02:28:12;18.23;;;11.13;;
16029;SDS011;34770;49.272;11.070;2024-01-10T02:30:37;17.03;;;10.70;;
16029;SDS011;34770;49.272;11.070;2024-01-10T02:33:03;16.23;;;11.30;;
16029;SDS011;34770;49.272;11.070;2024-01-10T02:35:29;18.53;;;10.10;;
16029;SDS011;34770;49.272;11.070;2024-01-10T02:37:57;20.07;;;11.90;;
16029;SDS011;34770;49.272;11.070;2024-01-10T02:40:23;18.93;;;11.33;;
16029;SDS011;34770;49.272;11.070;2024-01-10T02:42:48;17.43;;;10.57;;
16029;SDS011;34770;49.272;11.070;2024-01-10T02:45:16;21.33;;;11.40;;
16029;SDS011;34770;49.272;11.070;2024-01-10T02:47:41;24.13;;;12.90;;
16029;SDS011;34770;49.272;11.070;2024-01-10T02:50:06;20.93;;;11.40;;
16029;SDS011;34770;49.272;11.070;2024-01-10T02:52:32;17.63;;;11.30;;
16029;SDS011;34770;49.272;11.070;2024-01-10T02:54:57;23.47;;;13.10;;
16029;SDS011;34770;49.272;11.070;2024-01-10T02:57:23;21.20;;;11.47;;
16029;SDS011;34770;49.272;11.070;2024-01-10T02:59:48;22.67;;;12.03;;
16029;SDS011;34770;49.272;11.070;2024-01-10T03:02:14;20.53;;;11.57;;
16029;SDS011;34770;49.272;11.070;2024-01-10T03:04:40;17.00;;;11.53;;
16029;SDS011;34770;49.272;11.070;2024-01-10T03:07:05;21.00;;;11.53;;
16029;SDS011;34770;49.272;11.070;2024-01-10T03:09:31;19.10;;;11.20;;
16029;SDS011;34770;49.272;11.070;2024-01-10T03:11:56;16.60;;;10.53;;
16029;SDS011;34770;49.272;11.070;2024-01-10T03:14:21;17.60;;;11.83;;
16029;SDS011;34770;49.272;11.070;2024-01-10T03:16:47;16.90;;;11.20;;
16029;SDS011;34770;49.272;11.070;2024-01-10T03:19:13;15.80;;;10.50;;
16029;SDS011;34770;49.272;11.070;2024-01-10T03:21:38;19.17;;;11.93;;
16029;SDS011;34770;49.272;11.070;2024-01-10T03:24:04;18.50;;;11.43;;
16029;SDS011;34770;49.272;11.070;2024-01-10T03:26:30;20.17;;;12.83;;
16029;SDS011;34770;49.272;11.070;2024-01-10T03:28:55;18.97;;;11.33;;
16029;SDS011;34770;49.272;11.070;2024-01-10T03:31:22;19.13;;;11.33;;
16029;SDS011;34770;49.272;11.070;2024-01-10T03:33:47;20.53;;;10.90;;
16029;SDS011;34770;49.272;11.070;2024-01-10T03:36:14;19.83;;;11.67;;
16029;SDS011;34770;49.272;11.070;2024-01-10T03:38:41;16.43;;;10.07;;
16029;SDS011;34770;49.272;11.070;2024-01-10T03:41:07;21.60;;;12.10;;
16029;SDS011;34770;49.272;11.070;2024-01-10T03:43:32;17.10;;;11.80;;
16029;SDS011;34770;49.272;11.070;2024-01-10T03:45:58;17.53;;;11.67;;
16029;SDS011;34770;49.272;11.070;2024-01-10T03:48:24;14.30;;;10.43;;
16029;SDS011;34770;49.272;11.070;2024-01-10T03:50:49;22.00;;;11.30;;
16029;SDS011;34770;49.272;11.070;2024-01-10T03:53:15;15.47;;;10.00;;
16029;SDS011;34770;49.272;11.070;2024-01-10T03:55:40;18.87;;;11.27;;
16029;SDS011;34770;49.272;11.070;2024-01-10T03:58:06;25.53;;;11.77;;
16029;SDS011;34770;49.272;11.070;2024-01-10T04:00:31;18.90;;;11.87;;
16029;SDS011;34770;49.272;11.070;2024-01-10T04:02:57;18.47;;;11.97;;
16029;SDS011;34770;49.272;11.070;2024-01-10T04:05:22;15.00;;;9.93;;
16029;SDS011;34770;49.272;11.070;2024-01-10T04:07:49;18.73;;;11.93;;
16029;SDS011;34770;49.272;11.070;2024-01-10T04:10:15;19.07;;;11.50;;
16029;SDS011;34770;49.272;11.070;2024-01-10T04:12:41;21.97;;;12.70;;
16029;SDS011;34770;49.272;11.070;2024-01-10T04:15:07;21.37;;;10.87;;
16029;SDS011;34770;49.272;11.070;2024-01-10T04:17:32;21.23;;;12.67;;
16029;SDS011;34770;49.272;11.070;2024-01-10T04:19:58;18.60;;;11.63;;
16029;SDS011;34770;49.272;11.070;2024-01-10T04:22:24;16.47;;;11.57;;
16029;SDS011;34770;49.272;11.070;2024-01-10T04:24:50;24.57;;;11.97;;
16029;SDS011;34770;49.272;11.070;2024-01-10T04:27:15;16.07;;;12.70;;
16029;SDS011;34770;49.272;11.070;2024-01-10T04:29:41;16.27;;;11.30;;
16029;SDS011;34770;49.272;11.070;2024-01-10T04:32:06;21.10;;;12.80;;
16029;SDS011;34770;49.272;11.070;2024-01-10T04:34:32;16.90;;;12.53;;
16029;SDS011;34770;49.272;11.070;2024-01-10T04:36:57;16.93;;;11.37;;
16029;SDS011;34770;49.272;11.070;2024-01-10T04:39:23;21.93;;;13.00;;
16029;SDS011;34770;49.272;11.070;2024-01-10T04:41:48;16.57;;;11.60;;
16029;SDS011;34770;49.272;11.070;2024-01-10T04:44:14;18.33;;;11.53;;
16029;SDS011;34770;49.272;11.070;2024-01-10T04:46:39;16.57;;;11.57;;
16029;SDS011;34770;49.272;11.070;2024-01-10T04:49:06;18.17;;;11.50;;
16029;SDS011;34770;49.272;11.070;2024-01-10T04:51:32;19.37;;;11.43;;
16029;SDS011;34770;49.272;11.070;2024-01-10T04:53:57;16.33;;;10.60;;
16029;SDS011;34770;49.272;11.070;2024-01-10T04:56:23;16.67;;;11.37;;
16029;SDS011;34770;49.272;11.070;2024-01-10T04:58:48;18.67;;;11.90;;
16029;SDS011;34770;49.272;11.070;2024-01-10T05:01:13;22.27;;;11.53;;
16029;SDS011;34770;49.272;11.070;2024-01-10T05:03:39;24.63;;;12.13;;
16029;SDS011;34770;49.272;11.070;2024-01-10T05:06:04;13.87;;;10.20;;
16029;SDS011;34770;49.272;11.070;2024-01-10T05:08:30;22.93;;;12.27;;
16029;SDS011;34770;49.272;11.070;2024-01-10T05:10:56;18.23;;;11.50;;
16029;SDS011;34770;49.272;11.070;2024-01-10T05:13:21;19.60;;;12.57;;
16029;SDS011;34770;49.272;11.070;2024-01-10T05:15:47;15.03;;;10.97;;
16029;SDS011;34770;49.272;11.070;2024-01-10T05:18:12;20.23;;;12.07;;
16029;SDS011;34770;49.272;11.070;2024-01-10T05:20:37;18.67;;;11.43;;
16029;SDS011;34770;49.272;11.070;2024-01-10T05:23:03;16.53;;;11.33;;
16029;SDS011;34770;49.272;11.070;2024-01-10T05:25:28;19.27;;;12.77;;
16029;SDS011;34770;49.272;11.070;2024-01-10T05:27:54;22.10;;;12.40;;
16029;SDS011;34770;49.272;11.070;2024-01-10T05:30:20;19.97;;;12.37;;
16029;SDS011;34770;49.272;11.070;2024-01-10T05:32:45;15.43;;;11.17;;
16029;SDS011;34770;49.272;11.070;2024-01-10T05:35:10;19.77;;;12.17;;
16029;SDS011;34770;49.272;11.070;2024-01-10T05:37:36;19.07;;;11.23;;
16029;SDS011;34770;49.272;11.070;2024-01-10T05:40:02;21.30;;;12.03;;
16029;SDS011;34770;49.272;11.070;2024-01-10T05:42:29;15.97;;;11.30;;
16029;SDS011;34770;49.272;11.070;2024-01-10T05:44:55;18.63;;;11.57;;
16029;SDS011;34770;49.272;11.070;2024-01-10T05:47:20;21.30;;;11.40;;
16029;SDS011;34770;49.272;11.070;2024-01-10T05:49:45;20.73;;;12.23;;
16029;SDS011;34770;49.272;11.070;2024-01-10T05:52:11;20.50;;;11.87;;
16029;SDS011;34770;49.272;11.070;2024-01-10T05:54:36;17.53;;;12.20;;
16029;SDS011;34770;49.272;11.070;2024-01-10T05:57:02;23.53;;;12.77;;
16029;SDS011;34770;49.272;11.070;2024-01-10T05:59:28;18.97;;;12.13;;
16029;SDS011;34770;49.272;11.070;2024-01-10T06:01:55;17.73;;;11.37;;
16029;SDS011;34770;49.272;11.070;2024-01-10T06:04:21;17.80;;;12.47;;
16029;SDS011;34770;49.272;11.070;2024-01-10T06:06:46;14.60;;;10.97;;
16029;SDS011;34770;49.272;11.070;2024-01-10T06:09:11;17.13;;;11.27;;
16029;SDS011;34770;49.272;11.070;2024-01-10T06:11:40;16.80;;;11.47;;
16029;SDS011;34770;49.272;11.070;2024-01-10T06:14:07;19.73;;;12.87;;
16029;SDS011;34770;49.272;11.070;2024-01-10T06:16:32;21.07;;;10.77;;
16029;SDS011;34770;49.272;11.070;2024-01-10T06:18:57;19.33;;;11.77;;
16029;SDS011;34770;49.272;11.070;2024-01-10T06:21:23;18.70;;;12.60;;
16029;SDS011;34770;49.272;11.070;2024-01-10T06:23:48;17.13;;;10.93;;
16029;SDS011;34770;49.272;11.070;2024-01-10T06:26:14;18.73;;;12.40;;
16029;SDS011;34770;49.272;11.070;2024-01-10T06:28:39;20.40;;;11.53;;
16029;SDS011;34770;49.272;11.070;2024-01-10T06:31:04;16.27;;;11.17;;
16029;SDS011;34770;49.272;11.070;2024-01-10T06:33:30;18.23;;;11.57;;
16029;SDS011;34770;49.272;11.070;2024-01-10T06:35:55;19.77;;;12.27;;
16029;SDS011;34770;49.272;11.070;2024-01-10T06:38:21;17.67;;;11.13;;
16029;SDS011;34770;49.272;11.070;2024-01-10T06:40:47;19.87;;;11.17;;
16029;SDS011;34770;49.272;11.070;2024-01-10T06:43:13;16.03;;;11.07;;
16029;SDS011;34770;49.272;11.070;2024-01-10T06:45:39;18.27;;;10.93;;
16029;SDS011;34770;49.272;11.070;2024-01-10T06:48:05;21.60;;;12.80;;
16029;SDS011;34770;49.272;11.070;2024-01-10T06:50:31;24.17;;;13.00;;
16029;SDS011;34770;49.272;11.070;2024-01-10T06:52:57;21.70;;;12.17;;
16029;SDS011;34770;49.272;11.070;2024-01-10T06:55:22;17.67;;;12.20;;
16029;SDS011;34770;49.272;11.070;2024-01-10T06:57:49;20.33;;;12.03;;
16029;SDS011;34770;49.272;11.070;2024-01-10T07:00:16;19.87;;;11.73;;
16029;SDS011;34770;49.272;11.070;2024-01-10T07:02:42;18.27;;;12.50;;
16029;SDS011;34770;49.272;11.070;2024-01-10T07:05:08;18.60;;;11.50;;
16029;SDS011;34770;49.272;11.070;2024-01-10T07:07:34;17.07;;;12.23;;
16029;SDS011;34770;49.272;11.070;2024-01-10T07:10:00;18.73;;;11.27;;
16029;SDS011;34770;49.272;11.070;2024-01-10T07:12:26;22.30;;;12.03;;
16029;SDS011;34770;49.272;11.070;2024-01-10T07:14:52;16.73;;;11.10;;
16029;SDS011;34770;49.272;11.070;2024-01-10T07:17:17;19.63;;;11.17;;
16029;SDS011;34770;49.272;11.070;2024-01-10T07:19:42;18.73;;;12.30;;
16029;SDS011;34770;49.272;11.070;2024-01-10T07:22:08;18.87;;;11.47;;
16029;SDS011;34770;49.272;11.070;2024-01-10T07:24:35;17.43;;;12.00;;
16029;SDS011;34770;49.272;11.070;2024-01-10T07:27:00;22.83;;;13.37;;
16029;SDS011;34770;49.272;11.070;2024-01-10T07:29:26;18.17;;;12.17;;
16029;SDS011;34770;49.272;11.070;2024-01-10T07:31:51;21.40;;;11.20;;
16029;SDS011;34770;49.272;11.070;2024-01-10T07:34:17;15.70;;;11.73;;
16029;SDS011;34770;49.272;11.070;2024-01-10T07:36:43;24.43;;;12.50;;
16029;SDS011;34770;49.272;11.070;2024-01-10T07:39:08;23.63;;;13.17;;
16029;SDS011;34770;49.272;11.070;2024-01-10T07:41:34;21.13;;;12.80;;
16029;SDS011;34770;49.272;11.070;2024-01-10T07:43:59;25.37;;;12.80;;
16029;SDS011;34770;49.272;11.070;2024-01-10T07:46:24;21.03;;;13.73;;
16029;SDS011;34770;49.272;11.070;2024-01-10T07:48:52;22.83;;;14.17;;
16029;SDS011;34770;49.272;11.070;2024-01-10T07:51:17;27.90;;;15.23;;
16029;SDS011;34770;49.272;11.070;2024-01-10T07:53:42;26.70;;;14.97;;
16029;SDS011;34770;49.272;11.070;2024-01-10T07:56:08;37.60;;;17.07;;
16029;SDS011;34770;49.272;11.070;2024-01-10T07:58:33;30.03;;;16.70;;
16029;SDS011;34770;49.272;11.070;2024-01-10T08:00:58;39.60;;;19.70;;
16029;SDS011;34770;49.272;11.070;2024-01-10T08:03:24;61.10;;;21.73;;
16029;SDS011;34770;49.272;11.070;2024-01-10T08:05:49;71.40;;;24.90;;
16029;SDS011;34770;49.272;11.070;2024-01-10T08:08:14;41.57;;;20.80;;
16029;SDS011;34770;49.272;11.070;2024-01-10T08:10:42;30.23;;;18.40;;
16029;SDS011;34770;49.272;11.070;2024-01-10T08:13:07;44.47;;;19.43;;
16029;SDS011;34770;49.272;11.070;2024-01-10T08:15:32;53.03;;;22.23;;
16029;SDS011;34770;49.272;11.070;2024-01-10T08:17:59;39.17;;;17.13;;
16029;SDS011;34770;49.272;11.070;2024-01-10T08:20:28;25.97;;;14.73;;
16029;SDS011;34770;49.272;11.070;2024-01-10T08:22:53;29.37;;;15.50;;
16029;SDS011;34770;49.272;11.070;2024-01-10T08:25:18;25.40;;;15.07;;
16029;SDS011;34770;49.272;11.070;2024-01-10T08:27:44;30.07;;;14.50;;
16029;SDS011;34770;49.272;11.070;2024-01-10T08:30:10;30.57;;;15.03;;
16029;SDS011;34770;49.272;11.070;2024-01-10T08:32:36;28.03;;;16.77;;
16029;SDS011;34770;49.272;11.070;2024-01-10T08:35:02;28.73;;;15.10;;
16029;SDS011;34770;49.272;11.070;2024-01-10T08:37:32;27.23;;;15.83;;
16029;SDS011;34770;49.272;11.070;2024-01-10T08:39:58;28.13;;;16.20;;
16029;SDS011;34770;49.272;11.070;2024-01-10T08:42:25;26.93;;;13.90;;
16029;SDS011;34770;49.272;11.070;2024-01-10T08:44:50;24.60;;;15.63;;
16029;SDS011;34770;49.272;11.070;2024-01-10T08:47:15;28.83;;;16.00;;
16029;SDS011;34770;49.272;11.070;2024-01-10T08:49:41;25.37;;;16.37;;
16029;SDS011;34770;49.272;11.070;2024-01-10T08:52:06;32.77;;;18.43;;
16029;SDS011;34770;49.272;11.070;2024-01-10T08:54:33;29.00;;;16.70;;
16029;SDS011;34770;49.272;11.070;2024-01-10T08:56:58;27.13;;;15.67;;
16029;SDS011;34770;49.272;11.070;2024-01-10T08:59:25;33.57;;;16.80;;
16029;SDS011;34770;49.272;11.070;2024-01-10T09:01:52;27.63;;;16.70;;
16029;SDS011;34770;49.272;11.070;2024-01-10T09:04:18;23.17;;;16.83;;
16029;SDS011;34770;49.272;11.070;2024-01-10T09:06:45;27.43;;;15.60;;
16029;SDS011;34770;49.272;11.070;2024-01-10T09:09:10;31.47;;;18.57;;
16029;SDS011;34770;49.272;11.070;2024-01-10T09:11:36;28.93;;;15.73;;
16029;SDS011;34770;49.272;11.070;2024-01-10T09:14:01;23.50;;;14.27;;
16029;SDS011;34770;49.272;11.070;2024-01-10T09:16:26;24.43;;;14.43;;
16029;SDS011;34770;49.272;11.070;2024-01-10T09:18:52;19.40;;;14.60;;
16029;SDS011;34770;49.272;11.070;2024-01-10T09:21:21;26.60;;;14.60;;
16029;SDS011;34770;49.272;11.070;2024-01-10T09:23:47;24.93;;;13.27;;
16029;SDS011;34770;49.272;11.070;2024-01-10T09:26:16;30.30;;;14.53;;
16029;SDS011;34770;49.272;11.070;2024-01-10T09:28:41;22.87;;;14.00;;
16029;SDS011;34770;49.272;11.070;2024-01-10T09:31:07;23.80;;;14.33;;
16029;SDS011;34770;49.272;11.070;2024-01-10T09:33:32;25.03;;;13.27;;
16029;SDS011;34770;49.272;11.070;2024-01-10T09:35:59;24.37;;;14.70;;
16029;SDS011;34770;49.272;11.070;2024-01-10T09:38:24;21.77;;;12.87;;
16029;SDS011;34770;49.272;11.070;2024-01-10T09:40:49;20.93;;;14.17;;
16029;SDS011;34770;49.272;11.070;2024-01-10T09:43:16;23.50;;;14.70;;
16029;SDS011;34770;49.272;11.070;2024-01-10T09:45:43;26.03;;;15.20;;
16029;SDS011;34770;49.272;11.070;2024-01-10T09:48:13;27.80;;;17.23;;
16029;SDS011;34770;49.272;11.070;2024-01-10T09:50:40;23.43;;;14.57;;
16029;SDS011;34770;49.272;11.070;2024-01-10T09:53:06;19.97;;;12.73;;
16029;SDS011;34770;49.272;11.070;2024-01-10T09:55:35;20.10;;;13.77;;
16029;SDS011;34770;49.272;11.070;2024-01-10T09:58:04;22.27;;;12.73;;
16029;SDS011;34770;49.272;11.070;2024-01-10T10:00:31;24.53;;;13.63;;
16029;SDS011;34770;49.272;11.070;2024-01-10T10:02:58;24.67;;;13.67;;
16029;SDS011;34770;49.272;11.070;2024-01-10T10:05:25;22.67;;;14.47;;
16029;SDS011;34770;49.272;11.070;2024-01-10T10:07:51;23.30;;;14.30;;
16029;SDS011;34770;49.272;11.070;2024-01-10T10:10:20;24.77;;;15.10;;
16029;SDS011;34770;49.272;11.070;2024-01-10T10:12:46;24.27;;;14.10;;
16029;SDS011;34770;49.272;11.070;2024-01-10T10:15:19;23.80;;;14.23;;
16029;SDS011;34770;49.272;11.070;2024-01-10T10:17:47;23.33;;;13.47;;
16029;SDS011;34770;49.272;11.070;2024-01-10T10:23:08;21.20;;;12.97;;
16029;SDS011;34770;49.272;11.070;2024-01-10T10:25:44;22.93;;;13.80;;
16029;SDS011;34770;49.272;11.070;2024-01-10T10:28:11;22.80;;;13.33;;
16029;SDS011;34770;49.272;11.070;2024-01-10T10:30:36;25.47;;;13.83;;
16029;SDS011;34770;49.272;11.070;2024-01-10T10:33:02;20.67;;;12.83;;
16029;SDS011;34770;49.272;11.070;2024-01-10T10:35:28;20.87;;;13.07;;
16029;SDS011;34770;49.272;11.070;2024-01-10T10:37:54;23.97;;;13.23;;
16029;SDS011;34770;49.272;11.070;2024-01-10T10:40:20;25.10;;;13.93;;
16029;SDS011;34770;49.272;11.070;2024-01-10T10:42:47;20.80;;;14.30;;
16029;SDS011;34770;49.272;11.070;2024-01-10T10:45:15;21.97;;;14.10;;
16029;SDS011;34770;49.272;11.070;2024-01-10T10:47:43;25.23;;;14.33;;
16029;SDS011;34770;49.272;11.070;2024-01-10T10:50:12;16.67;;;11.83;;
16029;SDS011;34770;49.272;11.070;2024-01-10T10:52:42;23.30;;;13.97;;
16029;SDS011;34770;49.272;11.070;2024-01-10T10:55:13;20.33;;;13.47;;
16029;SDS011;34770;49.272;11.070;2024-01-10T10:57:40;19.63;;;12.90;;
16029;SDS011;34770;49.272;11.070;2024-01-10T11:00:08;20.37;;;13.00;;
16029;SDS011;34770;49.272;11.070;2024-01-10T11:02:35;19.87;;;12.97;;
16029;SDS011;34770;49.272;11.070;2024-01-10T11:05:02;22.33;;;13.47;;
16029;SDS011;34770;49.272;11.070;2024-01-10T11:07:29;18.50;;;12.40;;
16029;SDS011;34770;49.272;11.070;2024-01-10T11:09:55;20.27;;;13.00;;
16029;SDS011;34770;49.272;11.070;2024-01-10T11:12:37;22.53;;;13.50;;
16029;SDS011;34770;49.272;11.070;2024-01-10T11:20:55;19.90;;;13.37;;
16029;SDS011;34770;49.272;11.070;2024-01-10T11:23:38;18.67;;;12.97;;
16029;SDS011;34770;49.272;11.070;2024-01-10T11:26:09;20.73;;;14.00;;
16029;SDS011;34770;49.272;11.070;2024-01-10T11:28:36;21.80;;;13.87;;
16029;SDS011;34770;49.272;11.070;2024-01-10T11:31:05;19.67;;;13.87;;
16029;SDS011;34770;49.272;11.070;2024-01-10T11:33:33;20.93;;;13.77;;
16029;SDS011;34770;49.272;11.070;2024-01-10T11:36:06;19.87;;;13.73;;
16029;SDS011;34770;49.272;11.070;2024-01-10T11:43:45;23.30;;;13.87;;
16029;SDS011;34770;49.272;11.070;2024-01-10T11:46:12;20.77;;;12.80;;
16029;SDS011;34770;49.272;11.070;2024-01-10T11:48:37;20.00;;;13.57;;
16029;SDS011;34770;49.272;11.070;2024-01-10T11:51:04;23.80;;;13.93;;
16029;SDS011;34770;49.272;11.070;2024-01-10T11:53:42;19.47;;;13.40;;
16029;SDS011;34770;49.272;11.070;2024-01-10T11:56:14;19.00;;;13.30;;
16029;SDS011;34770;49.272;11.070;2024-01-10T12:01:33;19.33;;;12.83;;
16029;SDS011;34770;49.272;11.070;2024-01-10T12:03:58;22.10;;;13.33;;
16029;SDS011;34770;49.272;11.070;2024-01-10T12:06:25;18.80;;;12.83;;
16029;SDS011;34770;49.272;11.070;2024-01-10T12:08:50;19.47;;;13.07;;
16029;SDS011;34770;49.272;11.070;2024-01-10T12:11:16;20.07;;;13.10;;
16029;SDS011;34770;49.272;11.070;2024-01-10T12:13:42;24.03;;;13.77;;
16029;SDS011;34770;49.272;11.070;2024-01-10T12:16:08;20.03;;;12.87;;
16029;SDS011;34770;49.272;11.070;2024-01-10T12:18:33;21.00;;;12.97;;
16029;SDS011;34770;49.272;11.070;2024-01-10T12:20:59;21.70;;;13.90;;
16029;SDS011;34770;49.272;11.070;2024-01-10T12:23:25;20.07;;;12.87;;
16029;SDS011;34770;49.272;11.070;2024-01-10T12:25:55;18.03;;;13.03;;
16029;SDS011;34770;49.272;11.070;2024-01-10T12:28:21;23.70;;;13.47;;
16029;SDS011;34770;49.272;11.070;2024-01-10T12:30:47;22.97;;;16.07;;
16029;SDS011;34770;49.272;11.070;2024-01-10T12:33:12;20.67;;;13.23;;
16029;SDS011;34770;49.272;11.070;2024-01-10T12:35:38;23.07;;;13.80;;
16029;SDS011;34770;49.272;11.070;2024-01-10T12:38:07;17.57;;;12.50;;
16029;SDS011;34770;49.272;11.070;2024-01-10T12:40:35;20.73;;;13.87;;
16029;SDS011;34770;49.272;11.070;2024-01-10T12:43:05;21.20;;;14.47;;
16029;SDS011;34770;49.272;11.070;2024-01-10T12:45:30;18.60;;;13.40;;
16029;SDS011;34770;49.272;11.070;2024-01-10T12:47:57;18.23;;;13.13;;
16029;SDS011;34770;49.272;11.070;2024-01-10T12:50:22;19.27;;;12.60;;
16029;SDS011;34770;49.272;11.070;2024-01-10T12:52:50;18.73;;;12.93;;
16029;SDS011;34770;49.272;11.070;2024-01-10T12:55:15;18.30;;;12.07;;
16029;SDS011;34770;49.272;11.070;2024-01-10T12:57:42;17.73;;;11.93;;
16029;SDS011;34770;49.272;11.070;2024-01-10T13:00:08;19.00;;;12.13;;
16029;SDS011;34770;49.272;11.070;2024-01-10T13:02:35;18.20;;;12.37;;
16029;SDS011;34770;49.272;11.070;2024-01-10T13:05:02;20.70;;;12.70;;
16029;SDS011;34770;49.272;11.070;2024-01-10T13:07:37;18.40;;;12.13;;
16029;SDS011;34770;49.272;11.070;2024-01-10T13:10:02;23.13;;;13.73;;
16029;SDS011;34770;49.272;11.070;2024-01-10T13:12:28;20.33;;;14.23;;
16029;SDS011;34770;49.272;11.070;2024-01-10T13:14:53;23.63;;;15.00;;
16029;SDS011;34770;49.272;11.070;2024-01-10T13:17:19;23.80;;;14.87;;
16029;SDS011;34770;49.272;11.070;2024-01-10T13:19:45;18.67;;;12.80;;
16029;SDS011;34770;49.272;11.070;2024-01-10T13:22:14;19.20;;;12.73;;
16029;SDS011;34770;49.272;11.070;2024-01-10T13:24:43;19.87;;;11.97;;
16029;SDS011;34770;49.272;11.070;2024-01-10T13:27:10;16.00;;;11.33;;
16029;SDS011;34770;49.272;11.070;2024-01-10T13:29:35;16.10;;;11.67;;
16029;SDS011;34770;49.272;11.070;2024-01-10T13:32:02;41.50;;;23.03;;
16029;SDS011;34770;49.272;11.070;2024-01-10T13:34:29;36.77;;;20.73;;
16029;SDS011;34770;49.272;11.070;2024-01-10T13:36:54;23.07;;;13.77;;
16029;SDS011;34770;49.272;11.070;2024-01-10T13:39:19;22.30;;;14.33;;
16029;SDS011;34770;49.272;11.070;2024-01-10T13:41:45;23.60;;;13.47;;
16029;SDS011;34770;49.272;11.070;2024-01-10T13:44:10;17.97;;;11.87;;
16029;SDS011;34770;49.272;11.070;2024-01-10T13:46:35;17.87;;;11.80;;
16029;SDS011;34770;49.272;11.070;2024-01-10T13:49:01;16.53;;;11.53;;
16029;SDS011;34770;49.272;11.070;2024-01-10T13:51:26;21.53;;;14.33;;
16029;SDS011;34770;49.272;11.070;2024-01-10T13:53:52;17.07;;;12.37;;
16029;SDS011;34770;49.272;11.070;2024-01-10T13:56:17;19.67;;;12.03;;
16029;SDS011;34770;49.272;11.070;2024-01-10T13:58:42;17.20;;;12.33;;
16029;SDS011;34770;49.272;11.070;2024-01-10T14:01:08;16.77;;;12.37;;
16029;SDS011;34770;49.272;11.070;2024-01-10T14:03:33;25.15;;;18.10;;
16029;SDS011;34770;49.272;11.070;2024-01-10T14:05:58;22.33;;;14.30;;
16029;SDS011;34770;49.272;11.070;2024-01-10T14:08:24;20.27;;;13.20;;
16029;SDS011;34770;49.272;11.070;2024-01-10T14:10:49;21.13;;;14.27;;
16029;SDS011;34770;49.272;11.070;2024-01-10T14:13:15;20.80;;;13.03;;
16029;SDS011;34770;49.272;11.070;2024-01-10T14:15:40;33.60;;;19.27;;
16029;SDS011;34770;49.272;11.070;2024-01-10T14:18:07;30.45;;;19.50;;